NTAA/PPT METAR and TAF weather

Enter ICAO airport designator
Station Type Date Time Source
NTAA METAR 2019/10/23 03:00 UTC NOAA

NTAA 230300Z 23007KT 200V260 9999 FEW023 29/22 Q1011 NOSIG


Station Type Date Time Source
NTAA Decoded METAR 2019/10/23 03:00 UTC NOAA

Tahiti-Faaa, French Polynesia (NTAA) 17-33S 149-37W 2M
Oct 22, 2019 - 11:00 PM EDT / 2019.10.23 0300 UTC
Wind: from the SW (230 degrees) at 8 MPH (7 KT) (direction variable):0
Visibility: greater than 7 mile(s):0
Sky conditions: mostly clear
Temperature: 84 F (29 C)
Dew Point: 71 F (22 C)
Relative Humidity: 65%
Pressure (altimeter): 29.85 in. Hg (1011 hPa)
ob: NTAA 230300Z 23007KT 200V260 9999 FEW023 29/22 Q1011 NOSIG
cycle: 3

Station Type Date Time Source
NTAA TAF 2019/10/22 18:26 UTC NOAA

TAF NTAA 221700Z 2218/2324 18010KT 9999 FEW023
BECMG 2308/2310 VRB05KT

Example: see airport list